Terminal Aerodrome Forecast
Issued by NWS

Home | Current Version | Previous Version | Text Only | Print | Product List | Glossary On
Versions: 1 2 3 4 5 6 7 8 9 10 11 12 13 14 15 16 17 18 19 20 21 22 23 24 25
000
FTUS43 KDLH 231100
TAFHYR
TAF
KHYR 231129Z 2312/2412 14007KT P6SM BKN250
     FM232200 15006KT P6SM BKN080
     FM240300 13006KT P6SM -RA OVC050
     FM240600 13008KT 5SM -RA OVC030
     FM240900 13010KT P6SM -RA OVC015=

USA.gov is the U.S. government's official web portal to all federal, state and local government web resources and services.